sensor_id;sensor_type;location;lat;lon;timestamp;temperature;humidity
13086;DHT22;6609;49.882;8.664;2023-05-07T00:01:12;17.20;62.30
13086;DHT22;6609;49.882;8.664;2023-05-07T00:03:40;17.30;62.30
13086;DHT22;6609;49.882;8.664;2023-05-07T00:06:07;17.30;62.20
13086;DHT22;6609;49.882;8.664;2023-05-07T00:11:01;17.20;62.50
13086;DHT22;6609;49.882;8.664;2023-05-07T00:13:27;17.20;62.60
13086;DHT22;6609;49.882;8.664;2023-05-07T00:15:56;17.20;62.70
13086;DHT22;6609;49.882;8.664;2023-05-07T00:18:22;17.30;62.90
13086;DHT22;6609;49.882;8.664;2023-05-07T00:20:50;17.30;63.00
13086;DHT22;6609;49.882;8.664;2023-05-07T00:23:17;17.30;63.20
13086;DHT22;6609;49.882;8.664;2023-05-07T00:25:44;17.30;63.40
13086;DHT22;6609;49.882;8.664;2023-05-07T00:30:37;17.30;64.60
13086;DHT22;6609;49.882;8.664;2023-05-07T00:33:04;17.10;65.00
13086;DHT22;6609;49.882;8.664;2023-05-07T00:37:59;17.00;66.70
13086;DHT22;6609;49.882;8.664;2023-05-07T00:40:26;17.00;67.10
13086;DHT22;6609;49.882;8.664;2023-05-07T00:42:52;17.00;67.60
13086;DHT22;6609;49.882;8.664;2023-05-07T00:45:24;17.00;67.80
13086;DHT22;6609;49.882;8.664;2023-05-07T00:47:54;17.00;67.80
13086;DHT22;6609;49.882;8.664;2023-05-07T00:50:20;17.00;67.80
13086;DHT22;6609;49.882;8.664;2023-05-07T00:52:47;17.00;68.00
13086;DHT22;6609;49.882;8.664;2023-05-07T00:55:16;16.90;68.20
13086;DHT22;6609;49.882;8.664;2023-05-07T01:00:11;16.90;68.60
13086;DHT22;6609;49.882;8.664;2023-05-07T01:02:39;16.90;68.60
13086;DHT22;6609;49.882;8.664;2023-05-07T01:05:08;16.90;68.80
13086;DHT22;6609;49.882;8.664;2023-05-07T01:07:35;16.80;69.40
13086;DHT22;6609;49.882;8.664;2023-05-07T01:10:04;16.90;68.80
13086;DHT22;6609;49.882;8.664;2023-05-07T01:12:32;16.90;68.90
13086;DHT22;6609;49.882;8.664;2023-05-07T01:14:59;16.90;68.90
13086;DHT22;6609;49.882;8.664;2023-05-07T01:17:27;16.90;68.90
13086;DHT22;6609;49.882;8.664;2023-05-07T01:19:53;16.90;68.90
13086;DHT22;6609;49.882;8.664;2023-05-07T01:22:29;16.90;68.90
13086;DHT22;6609;49.882;8.664;2023-05-07T01:24:57;16.80;69.50
13086;DHT22;6609;49.882;8.664;2023-05-07T01:27:25;16.80;68.90
13086;DHT22;6609;49.882;8.664;2023-05-07T01:29:51;16.80;69.10
13086;DHT22;6609;49.882;8.664;2023-05-07T01:32:20;16.80;69.30
13086;DHT22;6609;49.882;8.664;2023-05-07T01:34:48;16.70;69.50
13086;DHT22;6609;49.882;8.664;2023-05-07T01:37:16;16.70;69.70
13086;DHT22;6609;49.882;8.664;2023-05-07T01:39:44;16.70;69.60
13086;DHT22;6609;49.882;8.664;2023-05-07T01:42:12;16.80;70.30
13086;DHT22;6609;49.882;8.664;2023-05-07T01:44:38;16.70;69.90
13086;DHT22;6609;49.882;8.664;2023-05-07T01:47:06;16.70;70.00
13086;DHT22;6609;49.882;8.664;2023-05-07T01:49:33;16.70;70.20
13086;DHT22;6609;49.882;8.664;2023-05-07T01:52:00;16.60;70.10
13086;DHT22;6609;49.882;8.664;2023-05-07T01:56:56;16.60;70.30
13086;DHT22;6609;49.882;8.664;2023-05-07T01:59:23;16.60;70.40
13086;DHT22;6609;49.882;8.664;2023-05-07T02:01:50;16.50;70.40
13086;DHT22;6609;49.882;8.664;2023-05-07T02:04:17;16.60;70.50
13086;DHT22;6609;49.882;8.664;2023-05-07T02:06:44;16.50;70.50
13086;DHT22;6609;49.882;8.664;2023-05-07T02:09:11;16.50;70.80
13086;DHT22;6609;49.882;8.664;2023-05-07T02:14:06;16.50;70.70
13086;DHT22;6609;49.882;8.664;2023-05-07T02:16:33;16.40;70.90
13086;DHT22;6609;49.882;8.664;2023-05-07T02:19:00;16.40;70.90
13086;DHT22;6609;49.882;8.664;2023-05-07T02:23:53;16.50;70.80
13086;DHT22;6609;49.882;8.664;2023-05-07T02:28:47;16.50;70.90
13086;DHT22;6609;49.882;8.664;2023-05-07T02:31:16;16.50;70.90
13086;DHT22;6609;49.882;8.664;2023-05-07T02:33:42;16.50;71.40
13086;DHT22;6609;49.882;8.664;2023-05-07T02:36:11;16.20;71.70
13086;DHT22;6609;49.882;8.664;2023-05-07T02:38:38;16.10;72.50
13086;DHT22;6609;49.882;8.664;2023-05-07T02:41:05;16.10;73.00
13086;DHT22;6609;49.882;8.664;2023-05-07T02:43:32;16.10;73.10
13086;DHT22;6609;49.882;8.664;2023-05-07T02:46:03;16.00;73.10
13086;DHT22;6609;49.882;8.664;2023-05-07T02:48:31;16.10;73.40
13086;DHT22;6609;49.882;8.664;2023-05-07T02:50:58;16.10;73.40
13086;DHT22;6609;49.882;8.664;2023-05-07T02:53:25;16.00;73.40
13086;DHT22;6609;49.882;8.664;2023-05-07T02:55:52;16.00;73.50
13086;DHT22;6609;49.882;8.664;2023-05-07T02:58:19;16.00;74.20
13086;DHT22;6609;49.882;8.664;2023-05-07T03:00:46;15.90;73.50
13086;DHT22;6609;49.882;8.664;2023-05-07T03:03:13;16.00;73.60
13086;DHT22;6609;49.882;8.664;2023-05-07T03:05:41;16.00;73.40
13086;DHT22;6609;49.882;8.664;2023-05-07T03:08:08;16.00;73.30
13086;DHT22;6609;49.882;8.664;2023-05-07T03:10:35;16.10;73.10
13086;DHT22;6609;49.882;8.664;2023-05-07T03:13:02;16.10;72.70
13086;DHT22;6609;49.882;8.664;2023-05-07T03:20:23;16.20;72.10
13086;DHT22;6609;49.882;8.664;2023-05-07T03:22:51;16.10;71.90
13086;DHT22;6609;49.882;8.664;2023-05-07T03:25:18;16.10;71.90
13086;DHT22;6609;49.882;8.664;2023-05-07T03:30:12;16.20;71.50
13086;DHT22;6609;49.882;8.664;2023-05-07T03:32:39;16.20;71.30
13086;DHT22;6609;49.882;8.664;2023-05-07T03:35:06;16.10;71.50
13086;DHT22;6609;49.882;8.664;2023-05-07T03:37:33;16.10;71.50
13086;DHT22;6609;49.882;8.664;2023-05-07T03:40:01;16.00;71.40
13086;DHT22;6609;49.882;8.664;2023-05-07T03:44:56;16.00;71.30
13086;DHT22;6609;49.882;8.664;2023-05-07T03:47:22;16.00;71.30
13086;DHT22;6609;49.882;8.664;2023-05-07T03:49:49;16.00;71.10
13086;DHT22;6609;49.882;8.664;2023-05-07T03:52:18;16.00;71.00
13086;DHT22;6609;49.882;8.664;2023-05-07T03:54:49;15.90;71.20
13086;DHT22;6609;49.882;8.664;2023-05-07T03:57:17;15.90;71.40
13086;DHT22;6609;49.882;8.664;2023-05-07T03:59:43;15.90;71.30
13086;DHT22;6609;49.882;8.664;2023-05-07T04:04:37;15.80;71.40
13086;DHT22;6609;49.882;8.664;2023-05-07T04:07:04;15.90;71.40
13086;DHT22;6609;49.882;8.664;2023-05-07T04:09:31;15.90;71.30
13086;DHT22;6609;49.882;8.664;2023-05-07T04:11:57;15.90;71.00
13086;DHT22;6609;49.882;8.664;2023-05-07T04:14:25;16.00;70.90
13086;DHT22;6609;49.882;8.664;2023-05-07T04:16:52;16.00;70.70
13086;DHT22;6609;49.882;8.664;2023-05-07T04:19:19;15.90;71.20
13086;DHT22;6609;49.882;8.664;2023-05-07T04:21:45;16.00;70.40
13086;DHT22;6609;49.882;8.664;2023-05-07T04:24:12;16.00;70.20
13086;DHT22;6609;49.882;8.664;2023-05-07T04:26:39;16.00;70.20
13086;DHT22;6609;49.882;8.664;2023-05-07T04:29:06;16.10;69.70
13086;DHT22;6609;49.882;8.664;2023-05-07T04:31:34;16.00;69.40
13086;DHT22;6609;49.882;8.664;2023-05-07T04:34:00;16.00;69.40
13086;DHT22;6609;49.882;8.664;2023-05-07T04:36:27;16.10;69.20
13086;DHT22;6609;49.882;8.664;2023-05-07T04:38:54;16.10;69.00
13086;DHT22;6609;49.882;8.664;2023-05-07T04:41:21;16.10;68.60
13086;DHT22;6609;49.882;8.664;2023-05-07T04:43:48;16.10;68.50
13086;DHT22;6609;49.882;8.664;2023-05-07T04:48:43;16.10;67.90
13086;DHT22;6609;49.882;8.664;2023-05-07T04:51:10;16.10;67.60
13086;DHT22;6609;49.882;8.664;2023-05-07T04:53:37;16.20;67.40
13086;DHT22;6609;49.882;8.664;2023-05-07T04:56:04;16.20;67.10
13086;DHT22;6609;49.882;8.664;2023-05-07T04:58:31;16.20;66.80
13086;DHT22;6609;49.882;8.664;2023-05-07T05:00:58;16.30;66.80
13086;DHT22;6609;49.882;8.664;2023-05-07T05:03:25;16.40;66.20
13086;DHT22;6609;49.882;8.664;2023-05-07T05:05:53;16.40;66.00
13086;DHT22;6609;49.882;8.664;2023-05-07T05:08:20;16.40;65.60
13086;DHT22;6609;49.882;8.664;2023-05-07T05:10:47;16.50;65.50
13086;DHT22;6609;49.882;8.664;2023-05-07T05:15:42;16.40;64.80
13086;DHT22;6609;49.882;8.664;2023-05-07T05:18:09;16.40;64.80
13086;DHT22;6609;49.882;8.664;2023-05-07T05:20:35;16.40;64.80
13086;DHT22;6609;49.882;8.664;2023-05-07T05:23:03;16.40;64.80
13086;DHT22;6609;49.882;8.664;2023-05-07T05:25:31;16.40;64.80
13086;DHT22;6609;49.882;8.664;2023-05-07T05:27:57;16.50;64.80
13086;DHT22;6609;49.882;8.664;2023-05-07T05:32:51;16.50;64.60
13086;DHT22;6609;49.882;8.664;2023-05-07T05:35:18;16.60;64.70
13086;DHT22;6609;49.882;8.664;2023-05-07T05:40:13;16.70;64.40
13086;DHT22;6609;49.882;8.664;2023-05-07T05:42:40;16.70;64.50
13086;DHT22;6609;49.882;8.664;2023-05-07T05:45:08;16.70;64.30
13086;DHT22;6609;49.882;8.664;2023-05-07T05:50:02;16.80;64.40
13086;DHT22;6609;49.882;8.664;2023-05-07T05:52:29;16.70;64.20
13086;DHT22;6609;49.882;8.664;2023-05-07T05:54:55;16.80;64.10
13086;DHT22;6609;49.882;8.664;2023-05-07T05:57:23;16.80;64.10
13086;DHT22;6609;49.882;8.664;2023-05-07T05:59:50;16.90;64.10
13086;DHT22;6609;49.882;8.664;2023-05-07T06:04:44;17.00;63.60
13086;DHT22;6609;49.882;8.664;2023-05-07T06:07:11;17.00;63.50
13086;DHT22;6609;49.882;8.664;2023-05-07T06:09:38;17.00;63.50
13086;DHT22;6609;49.882;8.664;2023-05-07T06:12:05;17.10;63.60
13086;DHT22;6609;49.882;8.664;2023-05-07T06:14:33;17.20;63.40
13086;DHT22;6609;49.882;8.664;2023-05-07T06:19:27;17.10;62.80
13086;DHT22;6609;49.882;8.664;2023-05-07T06:21:53;17.40;62.90
13086;DHT22;6609;49.882;8.664;2023-05-07T06:24:21;17.10;62.50
13086;DHT22;6609;49.882;8.664;2023-05-07T06:26:48;17.10;62.50
13086;DHT22;6609;49.882;8.664;2023-05-07T06:31:43;17.20;62.50
13086;DHT22;6609;49.882;8.664;2023-05-07T06:34:10;17.20;62.50
13086;DHT22;6609;49.882;8.664;2023-05-07T06:36:39;17.20;62.60
13086;DHT22;6609;49.882;8.664;2023-05-07T06:41:33;17.30;62.50
13086;DHT22;6609;49.882;8.664;2023-05-07T06:46:28;17.30;62.60
13086;DHT22;6609;49.882;8.664;2023-05-07T06:48:56;17.30;62.70
13086;DHT22;6609;49.882;8.664;2023-05-07T06:53:50;17.40;62.10
13086;DHT22;6609;49.882;8.664;2023-05-07T06:56:17;17.40;61.90
13086;DHT22;6609;49.882;8.664;2023-05-07T06:58:44;17.30;61.90
13086;DHT22;6609;49.882;8.664;2023-05-07T07:03:37;17.30;61.90
13086;DHT22;6609;49.882;8.664;2023-05-07T07:06:05;17.30;61.90
13086;DHT22;6609;49.882;8.664;2023-05-07T07:08:32;17.40;61.90
13086;DHT22;6609;49.882;8.664;2023-05-07T07:18:21;17.50;61.00
13086;DHT22;6609;49.882;8.664;2023-05-07T07:23:16;17.50;61.00
13086;DHT22;6609;49.882;8.664;2023-05-07T07:30:37;17.70;61.10
13086;DHT22;6609;49.882;8.664;2023-05-07T07:35:31;17.70;60.80
13086;DHT22;6609;49.882;8.664;2023-05-07T07:37:58;17.80;60.80
13086;DHT22;6609;49.882;8.664;2023-05-07T07:40:26;17.80;60.50
13086;DHT22;6609;49.882;8.664;2023-05-07T07:42:53;17.70;60.40
13086;DHT22;6609;49.882;8.664;2023-05-07T07:45:20;18.10;60.60
13086;DHT22;6609;49.882;8.664;2023-05-07T07:50:14;18.10;60.00
13086;DHT22;6609;49.882;8.664;2023-05-07T07:55:08;18.10;59.00
13086;DHT22;6609;49.882;8.664;2023-05-07T07:57:36;18.00;59.10
13086;DHT22;6609;49.882;8.664;2023-05-07T08:00:04;18.10;59.10
13086;DHT22;6609;49.882;8.664;2023-05-07T08:02:32;18.10;58.90
13086;DHT22;6609;49.882;8.664;2023-05-07T08:07:26;18.10;57.70
13086;DHT22;6609;49.882;8.664;2023-05-07T08:09:52;18.20;57.60
13086;DHT22;6609;49.882;8.664;2023-05-07T08:14:47;18.20;56.80
13086;DHT22;6609;49.882;8.664;2023-05-07T08:27:03;18.80;56.70
13086;DHT22;6609;49.882;8.664;2023-05-07T08:31:58;18.90;55.90
13086;DHT22;6609;49.882;8.664;2023-05-07T08:34:25;19.00;55.80
13086;DHT22;6609;49.882;8.664;2023-05-07T08:39:19;19.10;55.40
13086;DHT22;6609;49.882;8.664;2023-05-07T08:41:45;19.10;55.30
13086;DHT22;6609;49.882;8.664;2023-05-07T08:44:13;19.10;54.90
13086;DHT22;6609;49.882;8.664;2023-05-07T08:46:41;19.10;54.50
13086;DHT22;6609;49.882;8.664;2023-05-07T08:49:10;19.10;54.50
13086;DHT22;6609;49.882;8.664;2023-05-07T08:51:37;19.20;54.40
13086;DHT22;6609;49.882;8.664;2023-05-07T08:54:04;19.30;54.30
13086;DHT22;6609;49.882;8.664;2023-05-07T09:06:22;19.60;53.60
13086;DHT22;6609;49.882;8.664;2023-05-07T09:08:49;19.60;53.20
13086;DHT22;6609;49.882;8.664;2023-05-07T09:11:20;19.70;52.90
13086;DHT22;6609;49.882;8.664;2023-05-07T09:16:15;19.80;52.40
13086;DHT22;6609;49.882;8.664;2023-05-07T09:21:10;19.80;51.60
13086;DHT22;6609;49.882;8.664;2023-05-07T09:23:38;19.90;51.10
13086;DHT22;6609;49.882;8.664;2023-05-07T09:26:06;20.00;51.00
13086;DHT22;6609;49.882;8.664;2023-05-07T09:28:38;20.00;51.00
13086;DHT22;6609;49.882;8.664;2023-05-07T09:36:02;20.40;50.30
13086;DHT22;6609;49.882;8.664;2023-05-07T09:38:29;20.50;50.30
13086;DHT22;6609;49.882;8.664;2023-05-07T09:41:04;20.80;50.30
13086;DHT22;6609;49.882;8.664;2023-05-07T09:43:34;20.90;49.10
13086;DHT22;6609;49.882;8.664;2023-05-07T09:46:07;21.00;48.30
13086;DHT22;6609;49.882;8.664;2023-05-07T09:48:38;21.20;48.20
13086;DHT22;6609;49.882;8.664;2023-05-07T09:51:15;21.40;47.40
13086;DHT22;6609;49.882;8.664;2023-05-07T09:53:43;21.50;46.60
13086;DHT22;6609;49.882;8.664;2023-05-07T09:56:13;21.70;46.10
13086;DHT22;6609;49.882;8.664;2023-05-07T09:58:41;21.80;45.80
13086;DHT22;6609;49.882;8.664;2023-05-07T10:01:10;21.90;45.60
13086;DHT22;6609;49.882;8.664;2023-05-07T10:03:40;22.10;45.20
13086;DHT22;6609;49.882;8.664;2023-05-07T10:06:08;22.40;44.80
13086;DHT22;6609;49.882;8.664;2023-05-07T10:08:35;22.40;44.20
13086;DHT22;6609;49.882;8.664;2023-05-07T10:11:03;22.40;44.00
13086;DHT22;6609;49.882;8.664;2023-05-07T10:13:32;22.30;43.70
13086;DHT22;6609;49.882;8.664;2023-05-07T10:16:01;22.30;43.40
13086;DHT22;6609;49.882;8.664;2023-05-07T10:18:30;22.40;43.70
13086;DHT22;6609;49.882;8.664;2023-05-07T10:21:02;22.50;43.20
13086;DHT22;6609;49.882;8.664;2023-05-07T10:23:31;22.80;43.20
13086;DHT22;6609;49.882;8.664;2023-05-07T10:25:59;22.90;42.60
13086;DHT22;6609;49.882;8.664;2023-05-07T10:28:29;23.00;42.30
13086;DHT22;6609;49.882;8.664;2023-05-07T10:31:08;23.10;42.30
13086;DHT22;6609;49.882;8.664;2023-05-07T10:33:37;23.30;42.20
13086;DHT22;6609;49.882;8.664;2023-05-07T10:36:05;23.40;41.50
13086;DHT22;6609;49.882;8.664;2023-05-07T10:38:33;23.50;40.80
13086;DHT22;6609;49.882;8.664;2023-05-07T10:41:00;23.80;40.40
13086;DHT22;6609;49.882;8.664;2023-05-07T10:43:39;24.40;39.30
13086;DHT22;6609;49.882;8.664;2023-05-07T10:46:13;24.70;38.40
13086;DHT22;6609;49.882;8.664;2023-05-07T10:49:09;25.00;36.50
13086;DHT22;6609;49.882;8.664;2023-05-07T10:54:21;25.10;36.20
13086;DHT22;6609;49.882;8.664;2023-05-07T10:59:33;24.50;36.90
13086;DHT22;6609;49.882;8.664;2023-05-07T11:02:07;24.40;37.40
13086;DHT22;6609;49.882;8.664;2023-05-07T11:10:06;25.50;34.90
13086;DHT22;6609;49.882;8.664;2023-05-07T11:12:52;25.90;34.60
13086;DHT22;6609;49.882;8.664;2023-05-07T11:15:43;26.50;33.00
13086;DHT22;6609;49.882;8.664;2023-05-07T11:18:12;26.70;31.70
13086;DHT22;6609;49.882;8.664;2023-05-07T11:20:55;26.70;32.40
13086;DHT22;6609;49.882;8.664;2023-05-07T11:26:46;27.20;31.00
13086;DHT22;6609;49.882;8.664;2023-05-07T11:29:15;27.40;29.00
13086;DHT22;6609;49.882;8.664;2023-05-07T11:31:42;27.60;28.30
13086;DHT22;6609;49.882;8.664;2023-05-07T11:34:11;27.70;28.00
13086;DHT22;6609;49.882;8.664;2023-05-07T11:36:42;27.70;28.40
13086;DHT22;6609;49.882;8.664;2023-05-07T11:39:27;27.80;28.00
13086;DHT22;6609;49.882;8.664;2023-05-07T11:41:54;28.00;27.60
13086;DHT22;6609;49.882;8.664;2023-05-07T11:44:21;27.80;27.30
13086;DHT22;6609;49.882;8.664;2023-05-07T11:46:48;27.60;28.20
13086;DHT22;6609;49.882;8.664;2023-05-07T11:49:17;27.20;28.70
13086;DHT22;6609;49.882;8.664;2023-05-07T11:51:44;26.80;29.20
13086;DHT22;6609;49.882;8.664;2023-05-07T11:54:15;26.50;29.30
13086;DHT22;6609;49.882;8.664;2023-05-07T11:56:43;26.30;29.70
13086;DHT22;6609;49.882;8.664;2023-05-07T11:59:10;26.20;29.80
13086;DHT22;6609;49.882;8.664;2023-05-07T12:01:36;25.90;29.20
13086;DHT22;6609;49.882;8.664;2023-05-07T12:04:03;25.80;30.60
13086;DHT22;6609;49.882;8.664;2023-05-07T12:06:36;25.80;30.40
13086;DHT22;6609;49.882;8.664;2023-05-07T12:09:03;26.00;30.70
13086;DHT22;6609;49.882;8.664;2023-05-07T12:11:30;25.90;30.20
13086;DHT22;6609;49.882;8.664;2023-05-07T12:13:56;25.90;30.40
13086;DHT22;6609;49.882;8.664;2023-05-07T12:16:23;25.90;30.20
13086;DHT22;6609;49.882;8.664;2023-05-07T12:21:18;25.90;29.50
13086;DHT22;6609;49.882;8.664;2023-05-07T12:23:51;25.90;29.80
13086;DHT22;6609;49.882;8.664;2023-05-07T12:26:19;25.80;30.00
13086;DHT22;6609;49.882;8.664;2023-05-07T12:28:46;25.70;30.30
13086;DHT22;6609;49.882;8.664;2023-05-07T12:31:14;25.50;30.60
13086;DHT22;6609;49.882;8.664;2023-05-07T12:36:08;25.50;31.30
13086;DHT22;6609;49.882;8.664;2023-05-07T12:38:36;25.50;31.70
13086;DHT22;6609;49.882;8.664;2023-05-07T12:41:08;25.70;30.00
13086;DHT22;6609;49.882;8.664;2023-05-07T12:43:35;25.70;29.60
13086;DHT22;6609;49.882;8.664;2023-05-07T12:46:04;25.70;30.00
13086;DHT22;6609;49.882;8.664;2023-05-07T12:48:31;25.70;30.60
13086;DHT22;6609;49.882;8.664;2023-05-07T12:50:59;25.70;29.00
13086;DHT22;6609;49.882;8.664;2023-05-07T12:53:27;25.90;28.20
13086;DHT22;6609;49.882;8.664;2023-05-07T12:55:56;25.80;28.10
13086;DHT22;6609;49.882;8.664;2023-05-07T12:58:26;25.90;28.20
13086;DHT22;6609;49.882;8.664;2023-05-07T13:03:24;25.90;28.50
13086;DHT22;6609;49.882;8.664;2023-05-07T13:05:52;25.90;27.70
13086;DHT22;6609;49.882;8.664;2023-05-07T13:08:26;25.70;28.00
13086;DHT22;6609;49.882;8.664;2023-05-07T13:13:20;25.60;29.50
13086;DHT22;6609;49.882;8.664;2023-05-07T13:15:49;25.60;29.70
13086;DHT22;6609;49.882;8.664;2023-05-07T13:20:42;25.50;29.60
13086;DHT22;6609;49.882;8.664;2023-05-07T13:28:03;25.40;29.40
13086;DHT22;6609;49.882;8.664;2023-05-07T13:32:59;25.30;29.30
13086;DHT22;6609;49.882;8.664;2023-05-07T13:35:25;25.30;29.30
13086;DHT22;6609;49.882;8.664;2023-05-07T13:42:47;25.30;29.50
13086;DHT22;6609;49.882;8.664;2023-05-07T13:50:10;25.30;29.80
13086;DHT22;6609;49.882;8.664;2023-05-07T13:52:40;25.30;29.20
13086;DHT22;6609;49.882;8.664;2023-05-07T13:55:08;25.30;29.40
13086;DHT22;6609;49.882;8.664;2023-05-07T13:57:35;25.30;29.20
13086;DHT22;6609;49.882;8.664;2023-05-07T14:00:03;25.20;29.10
13086;DHT22;6609;49.882;8.664;2023-05-07T14:04:57;25.20;29.60
13086;DHT22;6609;49.882;8.664;2023-05-07T14:07:25;25.10;29.50
13086;DHT22;6609;49.882;8.664;2023-05-07T14:09:52;25.10;30.00
13086;DHT22;6609;49.882;8.664;2023-05-07T14:12:19;25.10;29.90
13086;DHT22;6609;49.882;8.664;2023-05-07T14:17:16;25.10;29.90
13086;DHT22;6609;49.882;8.664;2023-05-07T14:24:39;24.90;30.10
13086;DHT22;6609;49.882;8.664;2023-05-07T14:36:55;24.70;30.90
13086;DHT22;6609;49.882;8.664;2023-05-07T14:44:17;24.70;31.40
13086;DHT22;6609;49.882;8.664;2023-05-07T14:49:11;24.60;31.30
13086;DHT22;6609;49.882;8.664;2023-05-07T14:59:05;24.60;32.00
13086;DHT22;6609;49.882;8.664;2023-05-07T15:01:32;24.50;31.60
13086;DHT22;6609;49.882;8.664;2023-05-07T15:04:00;24.50;31.20
13086;DHT22;6609;49.882;8.664;2023-05-07T15:11:22;24.30;31.50
13086;DHT22;6609;49.882;8.664;2023-05-07T15:16:17;24.20;31.60
13086;DHT22;6609;49.882;8.664;2023-05-07T15:23:38;24.00;33.00
13086;DHT22;6609;49.882;8.664;2023-05-07T15:26:06;24.00;33.00
13086;DHT22;6609;49.882;8.664;2023-05-07T15:31:00;24.00;32.70
13086;DHT22;6609;49.882;8.664;2023-05-07T15:33:28;23.90;32.60
13086;DHT22;6609;49.882;8.664;2023-05-07T15:35:55;23.80;33.00
13086;DHT22;6609;49.882;8.664;2023-05-07T15:40:51;23.80;32.90
13086;DHT22;6609;49.882;8.664;2023-05-07T15:43:17;23.70;33.20
13086;DHT22;6609;49.882;8.664;2023-05-07T15:48:11;23.70;33.40
13086;DHT22;6609;49.882;8.664;2023-05-07T15:50:39;23.70;34.20
13086;DHT22;6609;49.882;8.664;2023-05-07T15:55:33;23.60;33.70
13086;DHT22;6609;49.882;8.664;2023-05-07T15:58:00;23.60;34.20
13086;DHT22;6609;49.882;8.664;2023-05-07T16:02:55;23.60;35.20
13086;DHT22;6609;49.882;8.664;2023-05-07T16:05:21;23.60;36.00
13086;DHT22;6609;49.882;8.664;2023-05-07T16:07:50;23.50;36.90
13086;DHT22;6609;49.882;8.664;2023-05-07T16:10:16;23.50;38.70
13086;DHT22;6609;49.882;8.664;2023-05-07T16:17:37;22.70;45.20
13086;DHT22;6609;49.882;8.664;2023-05-07T16:20:05;22.50;47.00
13086;DHT22;6609;49.882;8.664;2023-05-07T16:25:02;22.00;49.90
13086;DHT22;6609;49.882;8.664;2023-05-07T16:29:57;21.70;52.90
13086;DHT22;6609;49.882;8.664;2023-05-07T16:37:19;21.40;56.80
13086;DHT22;6609;49.882;8.664;2023-05-07T16:39:47;21.30;57.80
13086;DHT22;6609;49.882;8.664;2023-05-07T16:42:15;21.20;58.80
13086;DHT22;6609;49.882;8.664;2023-05-07T16:47:08;21.20;60.10
13086;DHT22;6609;49.882;8.664;2023-05-07T16:56:57;21.10;62.80
13086;DHT22;6609;49.882;8.664;2023-05-07T16:59:25;21.10;63.20
13086;DHT22;6609;49.882;8.664;2023-05-07T17:06:50;20.70;66.30
13086;DHT22;6609;49.882;8.664;2023-05-07T17:14:11;20.30;67.50
13086;DHT22;6609;49.882;8.664;2023-05-07T17:26:28;19.70;69.60
13086;DHT22;6609;49.882;8.664;2023-05-07T17:28:55;19.70;70.00
13086;DHT22;6609;49.882;8.664;2023-05-07T17:38:45;19.60;72.40
13086;DHT22;6609;49.882;8.664;2023-05-07T17:46:07;19.60;72.70
13086;DHT22;6609;49.882;8.664;2023-05-07T18:15:38;19.50;75.50
13086;DHT22;6609;49.882;8.664;2023-05-07T18:18:05;19.40;76.10
13086;DHT22;6609;49.882;8.664;2023-05-07T18:20:32;19.40;76.60
13086;DHT22;6609;49.882;8.664;2023-05-07T18:27:54;19.20;77.90
13086;DHT22;6609;49.882;8.664;2023-05-07T18:32:48;19.00;80.50
13086;DHT22;6609;49.882;8.664;2023-05-07T18:45:05;19.00;81.30
13086;DHT22;6609;49.882;8.664;2023-05-07T18:47:32;18.90;81.00
13086;DHT22;6609;49.882;8.664;2023-05-07T18:57:21;18.80;81.40
13086;DHT22;6609;49.882;8.664;2023-05-07T18:59:51;18.90;81.10
13086;DHT22;6609;49.882;8.664;2023-05-07T19:02:19;18.80;81.00
13086;DHT22;6609;49.882;8.664;2023-05-07T19:04:45;18.80;81.40
13086;DHT22;6609;49.882;8.664;2023-05-07T19:07:12;18.70;82.10
13086;DHT22;6609;49.882;8.664;2023-05-07T19:17:01;18.80;82.60
13086;DHT22;6609;49.882;8.664;2023-05-07T19:19:28;18.70;82.60
13086;DHT22;6609;49.882;8.664;2023-05-07T19:24:22;18.60;83.50
13086;DHT22;6609;49.882;8.664;2023-05-07T19:29:16;18.60;84.70
13086;DHT22;6609;49.882;8.664;2023-05-07T19:31:42;18.60;84.90
13086;DHT22;6609;49.882;8.664;2023-05-07T19:36:38;18.50;87.00
13086;DHT22;6609;49.882;8.664;2023-05-07T19:41:32;18.40;88.40
13086;DHT22;6609;49.882;8.664;2023-05-07T19:43:59;18.40;88.60
13086;DHT22;6609;49.882;8.664;2023-05-07T19:46:26;18.40;88.80
13086;DHT22;6609;49.882;8.664;2023-05-07T19:51:22;18.30;90.00
13086;DHT22;6609;49.882;8.664;2023-05-07T20:06:04;18.00;91.20
13086;DHT22;6609;49.882;8.664;2023-05-07T20:13:26;17.90;91.20
13086;DHT22;6609;49.882;8.664;2023-05-07T20:15:56;17.80;91.50
13086;DHT22;6609;49.882;8.664;2023-05-07T20:18:23;17.80;91.60
13086;DHT22;6609;49.882;8.664;2023-05-07T20:25:47;17.70;92.10
13086;DHT22;6609;49.882;8.664;2023-05-07T20:28:15;17.70;92.20
13086;DHT22;6609;49.882;8.664;2023-05-07T20:47:54;17.70;92.60
13086;DHT22;6609;49.882;8.664;2023-05-07T20:52:48;17.60;92.50
13086;DHT22;6609;49.882;8.664;2023-05-07T21:00:11;17.60;93.10
13086;DHT22;6609;49.882;8.664;2023-05-07T21:05:05;17.60;93.20
13086;DHT22;6609;49.882;8.664;2023-05-07T21:09:59;17.70;93.00
13086;DHT22;6609;49.882;8.664;2023-05-07T21:17:21;17.70;93.10
13086;DHT22;6609;49.882;8.664;2023-05-07T21:19:48;17.60;93.10
13086;DHT22;6609;49.882;8.664;2023-05-07T21:22:15;17.70;93.20
13086;DHT22;6609;49.882;8.664;2023-05-07T21:29:35;17.50;93.30
13086;DHT22;6609;49.882;8.664;2023-05-07T21:32:02;17.40;93.60
13086;DHT22;6609;49.882;8.664;2023-05-07T21:36:58;17.40;93.60
13086;DHT22;6609;49.882;8.664;2023-05-07T21:41:51;17.20;93.90
13086;DHT22;6609;49.882;8.664;2023-05-07T21:49:12;17.10;94.10
13086;DHT22;6609;49.882;8.664;2023-05-07T21:51:40;17.10;94.30
13086;DHT22;6609;49.882;8.664;2023-05-07T21:59:01;16.90;94.90
13086;DHT22;6609;49.882;8.664;2023-05-07T22:03:55;17.00;94.80
13086;DHT22;6609;49.882;8.664;2023-05-07T22:08:50;17.00;94.80
13086;DHT22;6609;49.882;8.664;2023-05-07T22:11:17;17.00;94.90
13086;DHT22;6609;49.882;8.664;2023-05-07T22:18:38;17.30;94.60
13086;DHT22;6609;49.882;8.664;2023-05-07T22:23:32;17.30;94.40
13086;DHT22;6609;49.882;8.664;2023-05-07T22:26:00;17.30;94.50
13086;DHT22;6609;49.882;8.664;2023-05-07T22:30:54;17.30;94.40
13086;DHT22;6609;49.882;8.664;2023-05-07T22:33:20;17.30;94.40
13086;DHT22;6609;49.882;8.664;2023-05-07T22:43:09;17.30;94.20
13086;DHT22;6609;49.882;8.664;2023-05-07T22:45:36;17.20;94.30
13086;DHT22;6609;49.882;8.664;2023-05-07T22:52:57;17.10;94.50
13086;DHT22;6609;49.882;8.664;2023-05-07T23:15:03;17.10;94.40
13086;DHT22;6609;49.882;8.664;2023-05-07T23:17:31;17.00;94.60
13086;DHT22;6609;49.882;8.664;2023-05-07T23:19:58;16.90;94.80
13086;DHT22;6609;49.882;8.664;2023-05-07T23:22:25;16.90;95.00
13086;DHT22;6609;49.882;8.664;2023-05-07T23:24:52;16.90;95.00
13086;DHT22;6609;49.882;8.664;2023-05-07T23:32:13;16.80;95.20
13086;DHT22;6609;49.882;8.664;2023-05-07T23:34:41;16.80;95.40
13086;DHT22;6609;49.882;8.664;2023-05-07T23:39:34;16.90;95.50
13086;DHT22;6609;49.882;8.664;2023-05-07T23:42:01;16.90;95.40
13086;DHT22;6609;49.882;8.664;2023-05-07T23:44:28;17.00;95.30
13086;DHT22;6609;49.882;8.664;2023-05-07T23:46:55;17.00;95.30
13086;DHT22;6609;49.882;8.664;2023-05-07T23:49:21;17.00;95.30
13086;DHT22;6609;49.882;8.664;2023-05-07T23:51:49;17.00;95.20
